sensor_id;sensor_type;location;lat;lon;timestamp;pressure;altitude;pressure_sealevel;temperature;humidity
82392;BME280;72030;52.284;20.890;2023-09-19T00:00:51;99771.31;;;23.60;53.61
82392;BME280;72030;52.284;20.890;2023-09-19T00:02:34;99774.39;;;23.66;53.24
82392;BME280;72030;52.284;20.890;2023-09-19T00:04:14;99771.72;;;23.62;53.49
82392;BME280;72030;52.284;20.890;2023-09-19T00:05:53;99766.48;;;23.58;53.61
82392;BME280;72030;52.284;20.890;2023-09-19T00:07:33;99767.84;;;23.52;53.84
82392;BME280;72030;52.284;20.890;2023-09-19T00:09:14;99768.80;;;23.56;53.60
82392;BME280;72030;52.284;20.890;2023-09-19T00:10:55;99763.52;;;23.58;53.63
82392;BME280;72030;52.284;20.890;2023-09-19T00:12:36;99761.21;;;23.62;53.55
82392;BME280;72030;52.284;20.890;2023-09-19T00:14:15;99762.39;;;23.65;53.32
82392;BME280;72030;52.284;20.890;2023-09-19T00:15:55;99760.77;;;23.70;53.22
82392;BME280;72030;52.284;20.890;2023-09-19T00:17:36;99767.40;;;23.69;53.05
82392;BME280;72030;52.284;20.890;2023-09-19T00:19:18;99763.26;;;23.65;53.22
82392;BME280;72030;52.284;20.890;2023-09-19T00:20:59;99767.30;;;23.66;53.45
82392;BME280;72030;52.284;20.890;2023-09-19T00:22:40;99764.11;;;23.66;53.29
82392;BME280;72030;52.284;20.890;2023-09-19T00:24:20;99765.85;;;23.59;53.41
82392;BME280;72030;52.284;20.890;2023-09-19T00:26:01;99763.17;;;23.53;53.62
82392;BME280;72030;52.284;20.890;2023-09-19T00:27:42;99762.08;;;23.55;53.63
82392;BME280;72030;52.284;20.890;2023-09-19T00:29:21;99760.17;;;23.59;53.60
82392;BME280;72030;52.284;20.890;2023-09-19T00:31:01;99757.79;;;23.56;53.55
82392;BME280;72030;52.284;20.890;2023-09-19T00:32:41;99756.55;;;23.54;53.47
82392;BME280;72030;52.284;20.890;2023-09-19T00:34:20;99753.70;;;23.58;53.67
82392;BME280;72030;52.284;20.890;2023-09-19T00:35:59;99756.55;;;23.53;53.61
82392;BME280;72030;52.284;20.890;2023-09-19T00:37:39;99758.81;;;23.59;53.43
82392;BME280;72030;52.284;20.890;2023-09-19T00:39:18;99759.88;;;23.56;53.45
82392;BME280;72030;52.284;20.890;2023-09-19T00:40:59;99757.39;;;23.52;53.79
82392;BME280;72030;52.284;20.890;2023-09-19T00:42:39;99755.17;;;23.55;53.54
82392;BME280;72030;52.284;20.890;2023-09-19T00:44:18;99754.73;;;23.54;53.68
82392;BME280;72030;52.284;20.890;2023-09-19T00:45:58;99746.35;;;23.58;53.36
82392;BME280;72030;52.284;20.890;2023-09-19T00:47:40;99748.06;;;23.59;53.36
82392;BME280;72030;52.284;20.890;2023-09-19T00:49:20;99748.11;;;23.58;53.42
82392;BME280;72030;52.284;20.890;2023-09-19T00:51:04;99747.35;;;23.53;53.61
82392;BME280;72030;52.284;20.890;2023-09-19T00:52:44;99746.47;;;23.52;53.53
82392;BME280;72030;52.284;20.890;2023-09-19T00:54:26;99750.48;;;23.56;53.54
82392;BME280;72030;52.284;20.890;2023-09-19T00:56:07;99746.05;;;23.62;53.29
82392;BME280;72030;52.284;20.890;2023-09-19T00:57:47;99745.95;;;23.57;53.53
82392;BME280;72030;52.284;20.890;2023-09-19T00:59:28;99746.85;;;23.57;53.46
82392;BME280;72030;52.284;20.890;2023-09-19T01:01:09;99752.61;;;23.58;53.46
82392;BME280;72030;52.284;20.890;2023-09-19T01:02:49;99747.55;;;23.59;53.49
82392;BME280;72030;52.284;20.890;2023-09-19T01:04:28;99741.95;;;23.58;53.44
82392;BME280;72030;52.284;20.890;2023-09-19T01:06:07;99741.20;;;23.58;53.46
82392;BME280;72030;52.284;20.890;2023-09-19T01:07:47;99740.08;;;23.56;53.41
82392;BME280;72030;52.284;20.890;2023-09-19T01:09:26;99738.71;;;23.56;53.47
82392;BME280;72030;52.284;20.890;2023-09-19T01:11:13;99736.20;;;23.54;53.46
82392;BME280;72030;52.284;20.890;2023-09-19T01:13:03;99734.61;;;23.58;53.29
82392;BME280;72030;52.284;20.890;2023-09-19T01:14:55;99730.32;;;23.58;53.49
82392;BME280;72030;52.284;20.890;2023-09-19T01:16:44;99731.73;;;23.56;53.50
82392;BME280;72030;52.284;20.890;2023-09-19T01:18:38;99731.20;;;23.54;53.73
82392;BME280;72030;52.284;20.890;2023-09-19T01:20:29;99726.20;;;23.52;53.61
82392;BME280;72030;52.284;20.890;2023-09-19T01:22:16;99723.18;;;23.54;53.46
82392;BME280;72030;52.284;20.890;2023-09-19T01:24:11;99720.36;;;23.52;53.59
82392;BME280;72030;52.284;20.890;2023-09-19T01:28:12;99716.59;;;23.52;53.64
82392;BME280;72030;52.284;20.890;2023-09-19T01:30:01;99710.80;;;23.56;53.39
82392;BME280;72030;52.284;20.890;2023-09-19T01:31:43;99711.37;;;23.55;53.41
82392;BME280;72030;52.284;20.890;2023-09-19T01:33:24;99714.39;;;23.55;53.39
82392;BME280;72030;52.284;20.890;2023-09-19T01:35:03;99710.11;;;23.55;53.36
82392;BME280;72030;52.284;20.890;2023-09-19T01:36:42;99705.85;;;23.57;53.38
82392;BME280;72030;52.284;20.890;2023-09-19T01:38:23;99707.75;;;23.58;53.44
82392;BME280;72030;52.284;20.890;2023-09-19T01:40:06;99704.95;;;23.55;53.52
82392;BME280;72030;52.284;20.890;2023-09-19T01:42:01;99706.17;;;23.55;53.44
82392;BME280;72030;52.284;20.890;2023-09-19T01:43:45;99703.31;;;23.53;53.47
82392;BME280;72030;52.284;20.890;2023-09-19T01:45:33;99703.55;;;23.55;53.31
82392;BME280;72030;52.284;20.890;2023-09-19T01:47:19;99697.12;;;23.55;53.24
82392;BME280;72030;52.284;20.890;2023-09-19T01:49:07;99696.59;;;23.50;53.38
82392;BME280;72030;52.284;20.890;2023-09-19T01:50:58;99692.01;;;23.50;53.48
82392;BME280;72030;52.284;20.890;2023-09-19T01:52:45;99689.36;;;23.50;53.47
82392;BME280;72030;52.284;20.890;2023-09-19T01:54:37;99682.92;;;23.50;53.37
82392;BME280;72030;52.284;20.890;2023-09-19T01:56:22;99680.88;;;23.49;53.43
82392;BME280;72030;52.284;20.890;2023-09-19T01:58:08;99684.42;;;23.49;53.34
82392;BME280;72030;52.284;20.890;2023-09-19T01:59:59;99689.83;;;23.50;53.42
82392;BME280;72030;52.284;20.890;2023-09-19T02:01:45;99685.48;;;23.49;53.49
82392;BME280;72030;52.284;20.890;2023-09-19T02:03:25;99690.91;;;23.50;53.49
82392;BME280;72030;52.284;20.890;2023-09-19T02:05:07;99689.37;;;23.52;53.57
82392;BME280;72030;52.284;20.890;2023-09-19T02:06:46;99686.77;;;23.53;53.48
82392;BME280;72030;52.284;20.890;2023-09-19T02:08:26;99685.08;;;23.52;53.37
82392;BME280;72030;52.284;20.890;2023-09-19T02:10:09;99683.80;;;23.52;53.45
82392;BME280;72030;52.284;20.890;2023-09-19T02:11:49;99679.30;;;23.53;53.41
82392;BME280;72030;52.284;20.890;2023-09-19T02:13:29;99681.82;;;23.55;53.51
82392;BME280;72030;52.284;20.890;2023-09-19T02:15:10;99681.80;;;23.53;53.85
82392;BME280;72030;52.284;20.890;2023-09-19T02:16:49;99675.35;;;23.51;54.08
82392;BME280;72030;52.284;20.890;2023-09-19T02:18:28;99673.04;;;23.51;54.01
82392;BME280;72030;52.284;20.890;2023-09-19T02:20:09;99669.16;;;23.51;54.09
82392;BME280;72030;52.284;20.890;2023-09-19T02:21:52;99671.04;;;23.51;53.90
82392;BME280;72030;52.284;20.890;2023-09-19T02:23:31;99671.56;;;23.50;54.18
82392;BME280;72030;52.284;20.890;2023-09-19T02:25:11;99670.46;;;23.50;54.07
82392;BME280;72030;52.284;20.890;2023-09-19T02:26:51;99667.70;;;23.49;54.12
82392;BME280;72030;52.284;20.890;2023-09-19T02:28:32;99664.59;;;23.50;54.06
82392;BME280;72030;52.284;20.890;2023-09-19T02:30:13;99666.44;;;23.51;54.03
82392;BME280;72030;52.284;20.890;2023-09-19T02:31:53;99661.17;;;23.50;54.11
82392;BME280;72030;52.284;20.890;2023-09-19T02:33:34;99657.80;;;23.50;54.29
82392;BME280;72030;52.284;20.890;2023-09-19T02:35:13;99655.39;;;23.49;53.95
82392;BME280;72030;52.284;20.890;2023-09-19T02:36:52;99654.29;;;23.45;54.15
82392;BME280;72030;52.284;20.890;2023-09-19T02:38:32;99658.18;;;23.47;54.10
82392;BME280;72030;52.284;20.890;2023-09-19T02:40:12;99650.20;;;23.45;54.05
82392;BME280;72030;52.284;20.890;2023-09-19T02:41:58;99655.27;;;23.46;54.05
82392;BME280;72030;52.284;20.890;2023-09-19T02:43:37;99650.61;;;23.46;53.95
82392;BME280;72030;52.284;20.890;2023-09-19T02:45:17;99652.11;;;23.47;53.98
82392;BME280;72030;52.284;20.890;2023-09-19T02:46:57;99651.94;;;23.47;54.07
82392;BME280;72030;52.284;20.890;2023-09-19T02:48:36;99650.90;;;23.47;53.94
82392;BME280;72030;52.284;20.890;2023-09-19T02:50:16;99653.44;;;23.49;53.90
82392;BME280;72030;52.284;20.890;2023-09-19T02:51:56;99655.44;;;23.48;53.96
82392;BME280;72030;52.284;20.890;2023-09-19T02:53:37;99648.73;;;23.48;54.02
82392;BME280;72030;52.284;20.890;2023-09-19T02:55:17;99652.11;;;23.48;53.85
82392;BME280;72030;52.284;20.890;2023-09-19T02:56:58;99651.45;;;23.47;53.98
82392;BME280;72030;52.284;20.890;2023-09-19T02:58:37;99645.17;;;23.48;53.95
82392;BME280;72030;52.284;20.890;2023-09-19T03:00:18;99642.84;;;23.48;53.91
82392;BME280;72030;52.284;20.890;2023-09-19T03:01:59;99639.73;;;23.46;53.69
82392;BME280;72030;52.284;20.890;2023-09-19T03:03:39;99643.56;;;23.48;53.91
82392;BME280;72030;52.284;20.890;2023-09-19T03:05:19;99647.84;;;23.43;54.02
82392;BME280;72030;52.284;20.890;2023-09-19T03:06:58;99643.09;;;23.45;54.00
82392;BME280;72030;52.284;20.890;2023-09-19T03:08:38;99642.30;;;23.46;53.66
82392;BME280;72030;52.284;20.890;2023-09-19T03:10:20;99639.12;;;23.45;53.74
82392;BME280;72030;52.284;20.890;2023-09-19T03:11:59;99639.40;;;23.44;53.85
82392;BME280;72030;52.284;20.890;2023-09-19T03:13:38;99632.63;;;23.44;53.76
82392;BME280;72030;52.284;20.890;2023-09-19T03:15:20;99632.50;;;23.46;53.80
82392;BME280;72030;52.284;20.890;2023-09-19T03:16:59;99632.44;;;23.46;53.84
82392;BME280;72030;52.284;20.890;2023-09-19T03:18:38;99636.40;;;23.46;53.79
82392;BME280;72030;52.284;20.890;2023-09-19T03:20:17;99636.65;;;23.45;53.90
82392;BME280;72030;52.284;20.890;2023-09-19T03:21:58;99637.66;;;23.46;53.96
82392;BME280;72030;52.284;20.890;2023-09-19T03:23:37;99637.39;;;23.45;54.00
82392;BME280;72030;52.284;20.890;2023-09-19T03:25:17;99638.81;;;23.45;53.82
82392;BME280;72030;52.284;20.890;2023-09-19T03:26:56;99636.14;;;23.45;54.17
82392;BME280;72030;52.284;20.890;2023-09-19T03:28:36;99636.70;;;23.44;53.95
82392;BME280;72030;52.284;20.890;2023-09-19T03:30:15;99633.49;;;23.44;53.90
82392;BME280;72030;52.284;20.890;2023-09-19T03:31:54;99633.02;;;23.44;53.99
82392;BME280;72030;52.284;20.890;2023-09-19T03:33:33;99631.62;;;23.43;53.95
82392;BME280;72030;52.284;20.890;2023-09-19T03:35:14;99626.48;;;23.43;54.06
82392;BME280;72030;52.284;20.890;2023-09-19T03:36:54;99625.96;;;23.43;54.03
82392;BME280;72030;52.284;20.890;2023-09-19T03:38:34;99624.89;;;23.43;53.92
82392;BME280;72030;52.284;20.890;2023-09-19T03:40:14;99622.69;;;23.44;53.82
82392;BME280;72030;52.284;20.890;2023-09-19T03:41:54;99622.11;;;23.42;53.90
82392;BME280;72030;52.284;20.890;2023-09-19T03:43:33;99619.66;;;23.41;53.87
82392;BME280;72030;52.284;20.890;2023-09-19T03:45:13;99617.65;;;23.42;54.06
82392;BME280;72030;52.284;20.890;2023-09-19T03:46:53;99618.21;;;23.42;53.86
82392;BME280;72030;52.284;20.890;2023-09-19T03:48:33;99620.92;;;23.41;53.96
82392;BME280;72030;52.284;20.890;2023-09-19T03:50:12;99620.77;;;23.41;53.85
82392;BME280;72030;52.284;20.890;2023-09-19T03:51:53;99621.20;;;23.40;53.84
82392;BME280;72030;52.284;20.890;2023-09-19T03:53:32;99619.92;;;23.43;53.90
82392;BME280;72030;52.284;20.890;2023-09-19T03:55:11;99625.44;;;23.41;53.72
82392;BME280;72030;52.284;20.890;2023-09-19T03:56:50;99623.80;;;23.39;53.74
82392;BME280;72030;52.284;20.890;2023-09-19T03:58:29;99624.12;;;23.39;53.92
82392;BME280;72030;52.284;20.890;2023-09-19T04:00:10;99617.91;;;23.39;53.74
82392;BME280;72030;52.284;20.890;2023-09-19T04:01:52;99617.08;;;23.39;53.89
82392;BME280;72030;52.284;20.890;2023-09-19T04:03:33;99611.39;;;23.38;53.85
82392;BME280;72030;52.284;20.890;2023-09-19T04:05:24;99609.77;;;23.39;53.69
82392;BME280;72030;52.284;20.890;2023-09-19T04:07:04;99602.89;;;23.38;53.75
82392;BME280;72030;52.284;20.890;2023-09-19T04:08:43;99602.65;;;23.39;53.75
82392;BME280;72030;52.284;20.890;2023-09-19T04:10:23;99601.53;;;23.39;53.68
82392;BME280;72030;52.284;20.890;2023-09-19T04:12:04;99597.86;;;23.40;53.66
82392;BME280;72030;52.284;20.890;2023-09-19T04:13:43;99591.67;;;23.38;53.70
82392;BME280;72030;52.284;20.890;2023-09-19T04:15:22;99591.46;;;23.38;53.54
82392;BME280;72030;52.284;20.890;2023-09-19T04:17:01;99589.98;;;23.39;53.61
82392;BME280;72030;52.284;20.890;2023-09-19T04:18:40;99591.84;;;23.38;53.65
82392;BME280;72030;52.284;20.890;2023-09-19T04:20:20;99591.19;;;23.39;53.57
82392;BME280;72030;52.284;20.890;2023-09-19T04:22:00;99591.21;;;23.39;53.61
82392;BME280;72030;52.284;20.890;2023-09-19T04:23:40;99591.19;;;23.37;53.50
82392;BME280;72030;52.284;20.890;2023-09-19T04:25:20;99592.16;;;23.34;53.68
82392;BME280;72030;52.284;20.890;2023-09-19T04:26:59;99594.70;;;23.36;53.68
82392;BME280;72030;52.284;20.890;2023-09-19T04:28:39;99595.04;;;23.36;53.70
82392;BME280;72030;52.284;20.890;2023-09-19T04:30:18;99591.00;;;23.35;53.67
82392;BME280;72030;52.284;20.890;2023-09-19T04:31:59;99589.21;;;23.35;53.47
82392;BME280;72030;52.284;20.890;2023-09-19T04:33:38;99581.46;;;23.36;53.62
82392;BME280;72030;52.284;20.890;2023-09-19T04:35:17;99581.48;;;23.36;53.49
82392;BME280;72030;52.284;20.890;2023-09-19T04:36:56;99580.27;;;23.36;53.53
82392;BME280;72030;52.284;20.890;2023-09-19T04:38:36;99582.36;;;23.34;53.43
82392;BME280;72030;52.284;20.890;2023-09-19T04:40:15;99585.26;;;23.34;53.52
82392;BME280;72030;52.284;20.890;2023-09-19T04:41:55;99585.86;;;23.35;53.53
82392;BME280;72030;52.284;20.890;2023-09-19T04:43:35;99584.64;;;23.34;53.57
82392;BME280;72030;52.284;20.890;2023-09-19T04:45:14;99581.87;;;23.36;53.57
82392;BME280;72030;52.284;20.890;2023-09-19T04:46:53;99584.21;;;23.33;53.57
82392;BME280;72030;52.284;20.890;2023-09-19T04:48:32;99578.02;;;23.33;53.43
82392;BME280;72030;52.284;20.890;2023-09-19T04:50:12;99580.33;;;23.31;53.68
82392;BME280;72030;52.284;20.890;2023-09-19T04:51:51;99582.80;;;23.33;53.46
82392;BME280;72030;52.284;20.890;2023-09-19T04:53:30;99583.83;;;23.34;53.59
82392;BME280;72030;52.284;20.890;2023-09-19T04:55:11;99588.28;;;23.31;53.72
82392;BME280;72030;52.284;20.890;2023-09-19T04:56:53;99579.67;;;23.32;53.50
82392;BME280;72030;52.284;20.890;2023-09-19T04:58:32;99582.06;;;23.31;53.70
82392;BME280;72030;52.284;20.890;2023-09-19T05:00:13;99584.84;;;23.32;53.49
82392;BME280;72030;52.284;20.890;2023-09-19T05:01:54;99581.13;;;23.32;53.54
82392;BME280;72030;52.284;20.890;2023-09-19T05:03:33;99580.43;;;23.32;53.54
82392;BME280;72030;52.284;20.890;2023-09-19T05:05:13;99577.94;;;23.34;53.48
82392;BME280;72030;52.284;20.890;2023-09-19T05:06:54;99577.44;;;23.33;53.42
82392;BME280;72030;52.284;20.890;2023-09-19T05:08:33;99576.30;;;23.32;53.52
82392;BME280;72030;52.284;20.890;2023-09-19T05:10:12;99574.79;;;23.33;53.53
82392;BME280;72030;52.284;20.890;2023-09-19T05:11:51;99572.24;;;23.32;53.44
82392;BME280;72030;52.284;20.890;2023-09-19T05:13:30;99576.70;;;23.32;53.52
82392;BME280;72030;52.284;20.890;2023-09-19T05:15:10;99571.80;;;23.33;53.55
82392;BME280;72030;52.284;20.890;2023-09-19T05:16:49;99573.16;;;23.31;53.45
82392;BME280;72030;52.284;20.890;2023-09-19T05:18:29;99574.66;;;23.33;53.53
82392;BME280;72030;52.284;20.890;2023-09-19T05:20:11;99570.73;;;23.33;53.50
82392;BME280;72030;52.284;20.890;2023-09-19T05:21:52;99572.99;;;23.33;53.52
82392;BME280;72030;52.284;20.890;2023-09-19T05:23:32;99576.35;;;23.32;53.41
82392;BME280;72030;52.284;20.890;2023-09-19T05:25:11;99571.64;;;23.30;53.65
82392;BME280;72030;52.284;20.890;2023-09-19T05:26:53;99575.84;;;23.31;53.45
82392;BME280;72030;52.284;20.890;2023-09-19T05:28:34;99572.92;;;23.32;53.47
82392;BME280;72030;52.284;20.890;2023-09-19T05:30:14;99572.92;;;23.32;53.66
82392;BME280;72030;52.284;20.890;2023-09-19T05:31:53;99571.59;;;23.31;53.71
82392;BME280;72030;52.284;20.890;2023-09-19T05:33:32;99570.08;;;23.32;53.68
82392;BME280;72030;52.284;20.890;2023-09-19T05:35:11;99571.62;;;23.31;53.58
82392;BME280;72030;52.284;20.890;2023-09-19T05:36:50;99578.67;;;23.33;53.69
82392;BME280;72030;52.284;20.890;2023-09-19T05:38:29;99575.83;;;23.33;53.61
82392;BME280;72030;52.284;20.890;2023-09-19T05:40:10;99576.38;;;23.33;53.95
82392;BME280;72030;52.284;20.890;2023-09-19T05:41:49;99574.70;;;23.32;53.90
82392;BME280;72030;52.284;20.890;2023-09-19T05:43:28;99575.55;;;23.30;54.02
82392;BME280;72030;52.284;20.890;2023-09-19T05:45:09;99571.67;;;23.30;54.27
82392;BME280;72030;52.284;20.890;2023-09-19T05:46:50;99581.98;;;23.30;53.98
82392;BME280;72030;52.284;20.890;2023-09-19T05:48:29;99580.26;;;23.32;54.07
82392;BME280;72030;52.284;20.890;2023-09-19T05:50:09;99577.80;;;23.33;54.04
82392;BME280;72030;52.284;20.890;2023-09-19T05:51:48;99579.38;;;23.31;54.11
82392;BME280;72030;52.284;20.890;2023-09-19T05:53:31;99580.94;;;23.30;54.38
82392;BME280;72030;52.284;20.890;2023-09-19T05:55:11;99585.04;;;23.34;54.17
82392;BME280;72030;52.284;20.890;2023-09-19T05:56:50;99592.04;;;23.31;54.50
82392;BME280;72030;52.284;20.890;2023-09-19T05:58:30;99590.70;;;23.32;54.55
82392;BME280;72030;52.284;20.890;2023-09-19T06:00:11;99593.34;;;23.33;54.40
82392;BME280;72030;52.284;20.890;2023-09-19T06:01:51;99588.95;;;23.32;54.40
82392;BME280;72030;52.284;20.890;2023-09-19T06:03:30;99594.29;;;23.34;54.53
82392;BME280;72030;52.284;20.890;2023-09-19T06:05:10;99597.02;;;23.35;54.51
82392;BME280;72030;52.284;20.890;2023-09-19T06:06:49;99597.28;;;23.34;54.44
82392;BME280;72030;52.284;20.890;2023-09-19T06:08:28;99599.03;;;23.37;54.44
82392;BME280;72030;52.284;20.890;2023-09-19T06:10:09;99599.73;;;23.37;54.47
82392;BME280;72030;52.284;20.890;2023-09-19T06:11:48;99597.26;;;23.37;54.46
82392;BME280;72030;52.284;20.890;2023-09-19T06:13:29;99595.33;;;23.37;54.61
82392;BME280;72030;52.284;20.890;2023-09-19T06:15:12;99592.75;;;23.38;54.49
82392;BME280;72030;52.284;20.890;2023-09-19T06:16:53;99592.83;;;23.37;54.56
82392;BME280;72030;52.284;20.890;2023-09-19T06:18:32;99594.04;;;23.37;54.44
82392;BME280;72030;52.284;20.890;2023-09-19T06:20:12;99600.33;;;23.36;54.36
82392;BME280;72030;52.284;20.890;2023-09-19T06:21:54;99598.27;;;23.38;54.35
82392;BME280;72030;52.284;20.890;2023-09-19T06:23:33;99601.21;;;23.39;54.45
82392;BME280;72030;52.284;20.890;2023-09-19T06:25:14;99601.92;;;23.39;54.42
82392;BME280;72030;52.284;20.890;2023-09-19T06:26:56;99599.80;;;23.38;54.49
82392;BME280;72030;52.284;20.890;2023-09-19T06:28:39;99602.33;;;23.38;54.35
82392;BME280;72030;52.284;20.890;2023-09-19T06:30:20;99599.27;;;23.38;54.49
82392;BME280;72030;52.284;20.890;2023-09-19T06:32:00;99603.27;;;23.37;54.48
82392;BME280;72030;52.284;20.890;2023-09-19T06:33:39;99605.15;;;23.36;54.56
82392;BME280;72030;52.284;20.890;2023-09-19T06:35:18;99613.31;;;23.37;54.52
82392;BME280;72030;52.284;20.890;2023-09-19T06:36:58;99614.08;;;23.36;54.43
82392;BME280;72030;52.284;20.890;2023-09-19T06:38:37;99609.12;;;23.38;54.52
82392;BME280;72030;52.284;20.890;2023-09-19T06:40:17;99608.32;;;23.39;54.47
82392;BME280;72030;52.284;20.890;2023-09-19T06:41:57;99605.33;;;23.38;54.55
82392;BME280;72030;52.284;20.890;2023-09-19T06:43:39;99607.65;;;23.38;54.79
82392;BME280;72030;52.284;20.890;2023-09-19T06:45:18;99614.52;;;23.37;54.83
82392;BME280;72030;52.284;20.890;2023-09-19T06:46:59;99612.09;;;23.38;54.73
82392;BME280;72030;52.284;20.890;2023-09-19T06:48:38;99614.79;;;23.40;55.18
82392;BME280;72030;52.284;20.890;2023-09-19T06:50:18;99619.09;;;23.40;54.90
82392;BME280;72030;52.284;20.890;2023-09-19T06:52:00;99614.77;;;23.38;54.91
82392;BME280;72030;52.284;20.890;2023-09-19T06:53:40;99616.98;;;23.40;54.92
82392;BME280;72030;52.284;20.890;2023-09-19T06:55:20;99614.88;;;23.39;55.05
82392;BME280;72030;52.284;20.890;2023-09-19T06:57:03;99619.23;;;23.36;54.96
82392;BME280;72030;52.284;20.890;2023-09-19T06:58:43;99612.70;;;23.33;54.95
82392;BME280;72030;52.284;20.890;2023-09-19T07:00:23;99618.86;;;23.34;55.01
82392;BME280;72030;52.284;20.890;2023-09-19T07:02:03;99620.60;;;23.32;54.93
82392;BME280;72030;52.284;20.890;2023-09-19T07:03:43;99621.86;;;23.25;55.09
82392;BME280;72030;52.284;20.890;2023-09-19T07:05:23;99619.91;;;23.19;55.30
82392;BME280;72030;52.284;20.890;2023-09-19T07:07:02;99625.11;;;23.08;55.37
82392;BME280;72030;52.284;20.890;2023-09-19T07:08:41;99623.34;;;23.20;55.29
82392;BME280;72030;52.284;20.890;2023-09-19T07:10:23;99623.61;;;23.19;55.10
82392;BME280;72030;52.284;20.890;2023-09-19T07:12:04;99622.95;;;23.16;55.16
82392;BME280;72030;52.284;20.890;2023-09-19T07:13:43;99619.96;;;23.20;55.11
82392;BME280;72030;52.284;20.890;2023-09-19T07:15:23;99620.65;;;23.12;55.21
82392;BME280;72030;52.284;20.890;2023-09-19T07:17:03;99626.58;;;23.11;55.28
82392;BME280;72030;52.284;20.890;2023-09-19T07:18:43;99627.19;;;23.10;55.28
82392;BME280;72030;52.284;20.890;2023-09-19T07:20:24;99631.16;;;23.18;55.06
82392;BME280;72030;52.284;20.890;2023-09-19T07:22:04;99633.89;;;23.15;54.92
82392;BME280;72030;52.284;20.890;2023-09-19T07:23:45;99633.84;;;23.09;55.31
82392;BME280;72030;52.284;20.890;2023-09-19T07:25:24;99640.68;;;23.13;55.12
82392;BME280;72030;52.284;20.890;2023-09-19T07:27:04;99642.15;;;23.14;55.19
82392;BME280;72030;52.284;20.890;2023-09-19T07:28:44;99642.75;;;23.03;55.33
82392;BME280;72030;52.284;20.890;2023-09-19T07:30:23;99641.07;;;23.08;55.17
82392;BME280;72030;52.284;20.890;2023-09-19T07:32:04;99640.41;;;23.01;55.26
82392;BME280;72030;52.284;20.890;2023-09-19T07:33:44;99642.13;;;23.06;55.18
82392;BME280;72030;52.284;20.890;2023-09-19T07:35:23;99644.86;;;23.20;54.72
82392;BME280;72030;52.284;20.890;2023-09-19T07:37:03;99651.08;;;23.43;54.93
82392;BME280;72030;52.284;20.890;2023-09-19T07:38:42;99651.98;;;23.41;54.64
82392;BME280;72030;52.284;20.890;2023-09-19T07:40:21;99658.79;;;23.38;54.58
82392;BME280;72030;52.284;20.890;2023-09-19T07:42:01;99654.73;;;23.59;54.40
82392;BME280;72030;52.284;20.890;2023-09-19T07:43:40;99652.34;;;23.97;53.58
82392;BME280;72030;52.284;20.890;2023-09-19T07:45:19;99654.00;;;24.11;52.62
82392;BME280;72030;52.284;20.890;2023-09-19T07:46:58;99657.89;;;24.16;52.65
82392;BME280;72030;52.284;20.890;2023-09-19T07:48:40;99666.08;;;24.33;53.47
82392;BME280;72030;52.284;20.890;2023-09-19T07:50:20;99664.16;;;24.28;52.78
82392;BME280;72030;52.284;20.890;2023-09-19T07:51:59;99672.42;;;24.17;52.66
82392;BME280;72030;52.284;20.890;2023-09-19T07:53:40;99668.79;;;24.16;53.28
82392;BME280;72030;52.284;20.890;2023-09-19T07:55:20;99670.88;;;24.31;52.49
82392;BME280;72030;52.284;20.890;2023-09-19T07:57:01;99678.02;;;24.37;52.89
82392;BME280;72030;52.284;20.890;2023-09-19T07:58:41;99680.20;;;24.37;51.25
82392;BME280;72030;52.284;20.890;2023-09-19T08:00:21;99680.42;;;24.43;51.02
82392;BME280;72030;52.284;20.890;2023-09-19T08:02:00;99675.64;;;24.47;50.69
82392;BME280;72030;52.284;20.890;2023-09-19T08:03:42;99682.65;;;24.53;50.71
82392;BME280;72030;52.284;20.890;2023-09-19T08:05:23;99676.29;;;24.52;50.63
82392;BME280;72030;52.284;20.890;2023-09-19T08:07:02;99677.88;;;24.56;50.44
82392;BME280;72030;52.284;20.890;2023-09-19T08:08:43;99678.95;;;24.54;50.39
82392;BME280;72030;52.284;20.890;2023-09-19T08:10:22;99677.40;;;24.62;50.35
82392;BME280;72030;52.284;20.890;2023-09-19T08:12:02;99675.86;;;24.55;50.50
82392;BME280;72030;52.284;20.890;2023-09-19T08:13:43;99675.98;;;24.53;50.51
82392;BME280;72030;52.284;20.890;2023-09-19T08:15:23;99678.83;;;24.62;50.30
82392;BME280;72030;52.284;20.890;2023-09-19T08:17:03;99681.01;;;24.68;50.09
82392;BME280;72030;52.284;20.890;2023-09-19T08:18:42;99684.56;;;24.63;50.30
82392;BME280;72030;52.284;20.890;2023-09-19T08:20:21;99686.42;;;24.73;50.24
82392;BME280;72030;52.284;20.890;2023-09-19T08:22:01;99693.91;;;24.76;50.09
82392;BME280;72030;52.284;20.890;2023-09-19T08:23:40;99692.86;;;24.62;50.07
82392;BME280;72030;52.284;20.890;2023-09-19T08:25:20;99700.27;;;24.59;50.16
82392;BME280;72030;52.284;20.890;2023-09-19T08:26:59;99708.56;;;24.52;50.66
82392;BME280;72030;52.284;20.890;2023-09-19T08:28:39;99712.48;;;24.54;50.48
82392;BME280;72030;52.284;20.890;2023-09-19T08:30:21;99714.33;;;24.54;50.72
82392;BME280;72030;52.284;20.890;2023-09-19T08:32:01;99714.42;;;24.73;50.43
82392;BME280;72030;52.284;20.890;2023-09-19T08:33:41;99714.81;;;24.83;49.81
82392;BME280;72030;52.284;20.890;2023-09-19T08:35:20;99711.80;;;24.75;51.07
82392;BME280;72030;52.284;20.890;2023-09-19T08:36:58;99715.27;;;24.76;49.90
82392;BME280;72030;52.284;20.890;2023-09-19T08:38:37;99716.95;;;24.94;49.64
82392;BME280;72030;52.284;20.890;2023-09-19T08:40:17;99713.42;;;24.89;49.71
82392;BME280;72030;52.284;20.890;2023-09-19T08:41:59;99710.29;;;24.88;50.41
82392;BME280;72030;52.284;20.890;2023-09-19T08:43:38;99712.19;;;24.91;49.86
82392;BME280;72030;52.284;20.890;2023-09-19T08:45:17;99710.20;;;24.98;49.50
82392;BME280;72030;52.284;20.890;2023-09-19T08:47:03;99708.00;;;25.02;49.36
82392;BME280;72030;52.284;20.890;2023-09-19T08:48:49;99703.08;;;24.73;50.22